Time;durP1;ratioP1;P1;durP2;ratioP2;P2;SDS_P1;SDS_P2;PMS_P1;PMS_P2;Temp;Humidity;BMP_temperature;BMP_pressure;BME280_temperature;BME280_humidity;BME280_pressure;Samples;Min_cycle;Max_cycle;Signal;HPM_P1;HPM_P2
2022/09/05 00:02:17;;;;;;;4.40;3.93;;;17.80;97.10;;;;;;4980914;28;20463;-91
2022/09/05 00:05:08;;;;;;;3.87;3.07;;;17.80;97.10;;;;;;4996384;28;20467;-91
2022/09/05 00:07:34;;;;;;;2.33;2.00;;;17.70;97.30;;;;;;4994262;28;20488;-90
2022/09/05 00:10:22;;;;;;;2.40;1.93;;;17.70;97.30;;;;;;4995729;28;20932;-90
2022/09/05 00:12:49;;;;;;;2.37;2.17;;;17.60;97.30;;;;;;4980406;28;20671;-91
2022/09/05 00:15:33;;;;;;;1.93;1.83;;;17.60;97.30;;;;;;4996285;28;20440;-90
2022/09/05 00:18:29;;;;;;;4.07;2.23;;;17.60;97.30;;;;;;4996390;28;20437;-90
2022/09/05 00:21:17;;;;;;;3.30;3.10;;;17.60;97.30;;;;;;5001502;28;20431;-90
2022/09/05 00:24:17;;;;;;;3.10;2.90;;;17.50;97.30;;;;;;5010885;28;20413;-89
2022/09/05 00:27:16;;;;;;;3.47;3.27;;;17.50;97.30;;;;;;4995438;28;20441;-90
2022/09/05 00:29:59;;;;;;;3.37;2.70;;;17.40;97.30;;;;;;5007453;28;20512;-89
2022/09/05 00:32:35;;;;;;;7.63;3.13;;;17.40;97.30;;;;;;5007765;28;20425;-91
2022/09/05 00:35:21;;;;;;;4.73;2.70;;;17.40;97.30;;;;;;5010277;28;20417;-90
2022/09/05 00:37:49;;;;;;;3.90;2.60;;;17.40;97.30;;;;;;5013294;28;20515;-89
2022/09/05 00:40:28;;;;;;;4.43;2.70;;;17.30;97.30;;;;;;4980278;28;20421;-91
2022/09/05 00:43:26;;;;;;;3.57;2.03;;;17.30;97.30;;;;;;5009408;28;20430;-90
2022/09/05 00:45:55;;;;;;;3.50;2.23;;;17.30;97.30;;;;;;4972846;28;20445;-90
2022/09/05 00:48:47;;;;;;;1.77;1.30;;;17.30;97.30;;;;;;5001010;28;20410;-90
2022/09/05 00:51:24;;;;;;;2.97;2.77;;;17.20;97.30;;;;;;4969810;28;20452;-91
2022/09/05 00:54:18;;;;;;;3.00;1.90;;;17.20;97.30;;;;;;4998814;28;20409;-89
2022/09/05 00:57:09;;;;;;;2.23;2.10;;;17.20;97.30;;;;;;4982979;28;20611;-91
2022/09/05 00:59:57;;;;;;;8.20;3.00;;;17.20;97.30;;;;;;4999815;28;20524;-91
2022/09/05 01:02:52;;;;;;;7.80;2.83;;;17.20;97.30;;;;;;4982888;28;20429;-90
2022/09/05 01:05:18;;;;;;;2.97;1.83;;;17.10;97.30;;;;;;4999393;28;20444;-91
2022/09/05 01:08:21;;;;;;;2.03;1.90;;;17.10;97.30;;;;;;5006747;28;20466;-90
2022/09/05 01:11:03;;;;;;;6.63;3.07;;;17.10;97.30;;;;;;5016044;28;20240;-90
2022/09/05 01:13:53;;;;;;;2.60;2.40;;;17.10;97.30;;;;;;4982852;28;20417;-91
2022/09/05 01:16:33;;;;;;;2.60;2.30;;;17.00;97.30;;;;;;5015137;28;20549;-90
2022/09/05 01:19:27;;;;;;;2.30;2.10;;;17.00;97.30;;;;;;4999312;28;20478;-91
2022/09/05 01:22:11;;;;;;;5.10;3.87;;;17.00;97.30;;;;;;4984083;28;20516;-91
2022/09/05 01:25:00;;;;;;;4.67;3.40;;;16.90;97.30;;;;;;5023513;28;20421;-93
2022/09/05 01:27:54;;;;;;;4.77;2.70;;;16.90;97.30;;;;;;4999712;28;20430;-91
2022/09/05 01:30:28;;;;;;;3.83;1.87;;;16.90;97.30;;;;;;5011725;28;20464;-91
2022/09/05 01:33:09;;;;;;;4.90;2.33;;;16.80;97.30;;;;;;4996804;28;20952;-91
2022/09/05 01:35:59;;;;;;;3.93;2.60;;;16.80;97.30;;;;;;4998545;28;20763;-90
2022/09/05 01:38:44;;;;;;;6.90;3.47;;;16.80;97.30;;;;;;4982225;28;20476;-89
2022/09/05 01:41:20;;;;;;;3.03;2.07;;;16.80;97.30;;;;;;4986898;28;20437;-89
2022/09/05 01:44:25;;;;;;;2.93;2.10;;;16.70;97.30;;;;;;4981939;28;20432;-90
2022/09/05 01:46:54;;;;;;;3.53;2.70;;;16.70;97.30;;;;;;5015214;28;20449;-91
2022/09/05 01:49:41;;;;;;;5.93;3.13;;;16.70;97.30;;;;;;5023976;28;20452;-91
2022/09/05 01:52:38;;;;;;;3.17;1.60;;;16.70;97.30;;;;;;4982499;28;20479;-90
2022/09/05 01:55:28;;;;;;;2.30;1.80;;;16.70;97.30;;;;;;4997708;28;20441;-90
2022/09/05 01:58:22;;;;;;;3.20;2.93;;;16.60;97.30;;;;;;4982032;28;20413;-90
2022/09/05 02:01:09;;;;;;;5.77;4.23;;;16.60;97.30;;;;;;4999610;28;20435;-89
2022/09/05 02:03:58;;;;;;;3.70;2.10;;;16.60;97.30;;;;;;4981774;28;20431;-89
2022/09/05 02:07:01;;;;;;;3.80;3.20;;;16.60;97.30;;;;;;4981176;28;20536;-90
2022/09/05 02:09:30;;;;;;;4.90;2.60;;;16.60;97.30;;;;;;4995507;28;20478;-92
2022/09/05 02:12:14;;;;;;;3.87;2.67;;;16.60;97.30;;;;;;4989003;28;20465;-90
2022/09/05 02:14:58;;;;;;;2.70;2.50;;;16.50;97.30;;;;;;4977614;28;20493;-90
2022/09/05 02:17:40;;;;;;;2.63;2.43;;;16.50;97.30;;;;;;5007229;28;20425;-92
2022/09/05 02:20:32;;;;;;;2.87;2.67;;;16.50;97.30;;;;;;4998032;28;20420;-91
2022/09/05 02:23:08;;;;;;;3.53;2.87;;;16.50;97.30;;;;;;4996965;28;20421;-91
2022/09/05 02:25:59;;;;;;;5.40;2.50;;;16.50;97.30;;;;;;5008811;28;20450;-89
2022/09/05 02:28:44;;;;;;;4.40;3.30;;;16.50;97.30;;;;;;4986379;28;20430;-90
2022/09/05 02:31:20;;;;;;;2.70;2.40;;;16.40;97.30;;;;;;4992014;28;20465;-91
2022/09/05 02:34:14;;;;;;;3.60;3.10;;;16.50;97.30;;;;;;4996253;28;20508;-91
2022/09/05 02:36:59;;;;;;;4.00;2.70;;;16.40;97.30;;;;;;4996085;28;21006;-89
2022/09/05 02:39:59;;;;;;;3.90;2.33;;;16.40;97.30;;;;;;4995509;28;20424;-90
2022/09/05 02:42:44;;;;;;;3.13;2.70;;;16.40;97.30;;;;;;4995752;28;20421;-91
2022/09/05 02:45:20;;;;;;;2.60;2.33;;;16.40;97.30;;;;;;4978908;28;20441;-90
2022/09/05 02:48:02;;;;;;;5.97;4.10;;;16.40;97.30;;;;;;5012371;28;20425;-89
2022/09/05 02:50:55;;;;;;;4.10;3.10;;;16.30;97.30;;;;;;4979539;28;20472;-90
2022/09/05 02:53:22;;;;;;;3.77;2.20;;;16.20;97.30;;;;;;4978398;28;20422;-90
2022/09/05 02:56:29;;;;;;;5.60;3.23;;;16.20;97.30;;;;;;4979284;28;20441;-89
2022/09/05 02:58:58;;;;;;;4.03;2.53;;;16.20;97.30;;;;;;4967655;28;20938;-90
2022/09/05 03:01:42;;;;;;;3.57;3.37;;;16.10;97.30;;;;;;4982341;28;20504;-91
2022/09/05 03:04:22;;;;;;;7.50;3.87;;;16.10;97.30;;;;;;5022381;28;20480;-90
2022/09/05 03:07:01;;;;;;;5.13;2.60;;;16.10;97.30;;;;;;4985008;28;20797;-91
2022/09/05 03:10:23;;;;;;;4.07;2.80;;;16.00;97.30;;;;;;4959940;28;20418;-89
2022/09/05 03:13:08;;;;;;;2.80;2.20;;;16.00;97.30;;;;;;4864449;29;20941;-90
2022/09/05 03:16:02;;;;;;;3.83;2.70;;;16.00;97.30;;;;;;4878896;29;20446;-89
2022/09/05 03:19:29;;;;;;;2.37;2.17;;;15.90;97.30;;;;;;4956978;28;20425;-90
2022/09/05 03:22:16;;;;;;;4.27;2.40;;;15.90;97.30;;;;;;4884993;29;20441;-90
2022/09/05 03:25:13;;;;;;;3.70;3.17;;;15.90;97.30;;;;;;4879367;29;20438;-90
2022/09/05 03:28:03;;;;;;;3.97;2.40;;;15.90;97.30;;;;;;4958687;28;20422;-89
2022/09/05 03:30:53;;;;;;;5.83;2.90;;;15.90;97.30;;;;;;4973758;28;20481;-90
2022/09/05 03:33:49;;;;;;;3.33;3.13;;;15.90;97.30;;;;;;4958256;28;20395;-89
2022/09/05 03:36:28;;;;;;;4.57;2.77;;;15.90;97.30;;;;;;4990529;28;20448;-91
2022/09/05 03:39:31;;;;;;;3.70;2.73;;;15.90;97.30;;;;;;4974837;28;20948;-90
2022/09/05 03:42:21;;;;;;;4.23;2.13;;;15.80;97.30;;;;;;4990877;28;20433;-89
2022/09/05 03:45:18;;;;;;;3.30;2.47;;;15.80;97.30;;;;;;4958213;28;20441;-90
2022/09/05 03:48:18;;;;;;;3.67;2.70;;;15.70;97.30;;;;;;4980343;28;20429;-91
2022/09/05 03:51:09;;;;;;;5.80;4.13;;;15.70;97.30;;;;;;4946516;28;20542;-90
2022/09/05 03:54:03;;;;;;;2.80;2.43;;;15.70;97.30;;;;;;4974243;28;20943;-91
2022/09/05 03:56:56;;;;;;;2.93;2.07;;;15.60;97.30;;;;;;4957857;28;20441;-91
2022/09/05 03:59:40;;;;;;;4.73;2.00;;;15.60;97.30;;;;;;4978844;28;20486;-89
2022/09/05 04:02:09;;;;;;;4.63;2.60;;;15.60;97.30;;;;;;5001677;28;20432;-89
2022/09/05 04:04:48;;;;;;;2.90;2.00;;;15.50;97.30;;;;;;4965199;28;20513;-90
2022/09/05 04:07:41;;;;;;;3.83;3.10;;;15.50;97.30;;;;;;4970828;28;20559;-90
2022/09/05 04:10:23;;;;;;;3.13;2.33;;;15.50;97.30;;;;;;4981335;28;20935;-91
2022/09/05 04:12:56;;;;;;;2.77;2.43;;;15.50;97.30;;;;;;4974320;28;20501;-94
2022/09/05 04:15:37;;;;;;;5.10;3.10;;;15.40;97.30;;;;;;5016840;28;20452;-94
2022/09/05 04:18:28;;;;;;;2.80;2.10;;;15.40;97.30;;;;;;4983425;28;20425;-92
2022/09/05 04:21:00;;;;;;;4.20;2.80;;;15.30;97.30;;;;;;5003302;28;20453;-90
2022/09/05 04:23:53;;;;;;;2.23;2.03;;;15.30;97.30;;;;;;4968364;28;20426;-91
2022/09/05 04:26:37;;;;;;;2.97;2.80;;;15.30;97.30;;;;;;4970730;28;20975;-90
2022/09/05 04:29:18;;;;;;;9.50;3.60;;;15.30;97.30;;;;;;4969632;28;20437;-91
2022/09/05 04:32:07;;;;;;;3.20;2.40;;;15.20;97.30;;;;;;4976057;28;20465;-92
2022/09/05 04:35:10;;;;;;;2.87;2.53;;;15.20;97.30;;;;;;4978947;28;20436;-90
2022/09/05 04:37:52;;;;;;;3.90;2.47;;;15.20;97.30;;;;;;4982741;28;20441;-90
2022/09/05 04:40:47;;;;;;;4.07;2.67;;;15.10;97.30;;;;;;4968323;28;20437;-91
2022/09/05 04:43:34;;;;;;;2.90;2.40;;;15.10;97.30;;;;;;4979657;28;20433;-89
2022/09/05 04:46:27;;;;;;;3.87;2.00;;;15.10;97.30;;;;;;4964201;28;20472;-90
2022/09/05 04:49:18;;;;;;;3.20;2.27;;;15.10;97.30;;;;;;4995968;28;20417;-91
2022/09/05 04:52:08;;;;;;;2.33;1.97;;;15.10;97.30;;;;;;4986488;28;20469;-89
2022/09/05 04:54:36;;;;;;;2.53;2.33;;;15.10;97.30;;;;;;4990884;28;20445;-88
2022/09/05 04:57:11;;;;;;;3.10;2.47;;;15.10;97.30;;;;;;4992831;28;20533;-90
2022/09/05 04:59:52;;;;;;;2.70;2.13;;;15.10;97.30;;;;;;4970787;28;20414;-91
2022/09/05 05:02:41;;;;;;;2.57;2.43;;;15.10;97.30;;;;;;4958647;28;20778;-90
2022/09/05 05:05:16;;;;;;;6.63;4.33;;;15.10;97.30;;;;;;4961907;28;20469;-90
2022/09/05 05:08:03;;;;;;;5.40;2.67;;;15.10;97.30;;;;;;4983138;28;20990;-91
2022/09/05 05:10:39;;;;;;;3.10;1.87;;;15.10;97.30;;;;;;4995302;28;20499;-91
2022/09/05 05:13:16;;;;;;;3.33;3.13;;;15.10;97.30;;;;;;4979375;28;20428;-90
2022/09/05 05:15:57;;;;;;;3.73;3.53;;;15.10;97.30;;;;;;4992999;28;20495;-91
2022/09/05 05:18:51;;;;;;;4.10;2.20;;;15.10;97.30;;;;;;4995036;28;20511;-90
2022/09/05 05:21:24;;;;;;;6.70;2.00;;;15.10;97.30;;;;;;4988904;28;20425;-90
2022/09/05 05:24:00;;;;;;;2.67;2.53;;;15.10;97.30;;;;;;4978227;28;20425;-90
2022/09/05 05:26:39;;;;;;;2.90;2.10;;;15.10;97.30;;;;;;4988069;28;20457;-89
2022/09/05 05:29:09;;;;;;;4.57;2.60;;;15.10;97.30;;;;;;5008311;28;20915;-89
2022/09/05 05:31:48;;;;;;;5.93;3.30;;;15.10;97.30;;;;;;4985525;28;20484;-91
2022/09/05 05:34:19;;;;;;;3.70;3.07;;;15.10;97.30;;;;;;4988389;28;20428;-90
2022/09/05 05:36:52;;;;;;;4.93;3.03;;;15.20;97.30;;;;;;4994554;23;20576;-86
2022/09/05 05:39:27;;;;;;;3.20;2.13;;;15.20;97.30;;;;;;4990881;28;20425;-88
2022/09/05 05:41:54;;;;;;;3.07;2.87;;;15.20;97.30;;;;;;5006963;28;20478;-88
2022/09/05 05:44:37;;;;;;;2.10;1.70;;;15.20;97.30;;;;;;5012494;28;20416;-87
2022/09/05 05:47:16;;;;;;;8.40;2.60;;;15.30;97.30;;;;;;5010104;28;20555;-86
2022/09/05 05:50:07;;;;;;;3.43;2.50;;;15.30;97.30;;;;;;5017951;28;20411;-86
2022/09/05 05:53:01;;;;;;;3.23;2.90;;;15.30;97.30;;;;;;4999179;28;20441;-86
2022/09/05 05:55:38;;;;;;;2.23;2.03;;;15.40;97.30;;;;;;4987110;28;20930;-86
2022/09/05 05:58:15;;;;;;;3.00;1.97;;;15.40;97.30;;;;;;4995987;28;20442;-87
2022/09/05 06:01:00;;;;;;;2.50;2.40;;;15.40;97.30;;;;;;5009641;28;20427;-87
2022/09/05 06:04:03;;;;;;;2.30;2.10;;;15.50;97.30;;;;;;4993272;28;20927;-87
2022/09/05 06:06:43;;;;;;;5.90;3.00;;;15.50;97.30;;;;;;5005736;28;20436;-88
2022/09/05 06:09:27;;;;;;;9.67;3.57;;;15.50;97.30;;;;;;4993402;28;20508;-88
2022/09/05 06:12:41;;;;;;;6.90;2.97;;;15.50;97.30;;;;;;5000911;28;20456;-86
2022/09/05 06:15:42;;;;;;;3.80;2.27;;;15.60;97.30;;;;;;5000989;28;20423;-85
2022/09/05 06:18:37;;;;;;;2.47;2.03;;;15.60;97.30;;;;;;5017414;28;20416;-87
2022/09/05 06:21:34;;;;;;;2.80;2.40;;;15.70;97.30;;;;;;4994459;28;20428;-87
2022/09/05 06:24:28;;;;;;;6.37;4.40;;;15.70;97.30;;;;;;4989678;28;20421;-87
2022/09/05 06:27:24;;;;;;;3.17;2.33;;;15.80;97.30;;;;;;4999178;28;20703;-87
2022/09/05 06:30:08;;;;;;;5.70;3.70;;;15.90;97.30;;;;;;4992021;28;20713;-82
2022/09/05 06:32:52;;;;;;;3.40;2.67;;;15.90;97.30;;;;;;4988512;28;20432;-87
2022/09/05 06:35:37;;;;;;;3.77;3.30;;;16.00;97.30;;;;;;5002936;28;20771;-86
2022/09/05 06:38:25;;;;;;;5.33;2.80;;;16.10;97.30;;;;;;5003196;28;21052;-89
2022/09/05 06:41:20;;;;;;;4.30;2.33;;;16.10;97.30;;;;;;5010155;28;20474;-88
2022/09/05 06:44:22;;;;;;;5.50;2.10;;;16.20;97.30;;;;;;5019882;28;20593;-88
2022/09/05 06:46:53;;;;;;;3.13;2.40;;;16.20;97.30;;;;;;5016722;28;20830;-87
2022/09/05 06:49:27;;;;;;;5.50;3.50;;;16.30;97.30;;;;;;5012858;28;20473;-87
2022/09/05 06:52:25;;;;;;;5.70;2.70;;;16.40;97.30;;;;;;5012629;28;20981;-86
2022/09/05 06:55:05;;;;;;;4.20;2.50;;;16.50;97.30;;;;;;5029099;28;20427;-87
2022/09/05 06:57:40;;;;;;;5.43;3.43;;;16.50;97.30;;;;;;5013477;28;20439;-87
2022/09/05 07:00:19;;;;;;;7.63;4.17;;;16.60;97.30;;;;;;5023352;28;20469;-87
2022/09/05 07:03:19;;;;;;;4.63;2.47;;;16.60;97.30;;;;;;5031131;28;20423;-87
2022/09/05 07:06:10;;;;;;;8.40;2.80;;;16.70;97.30;;;;;;5011357;28;20903;-88
2022/09/05 07:09:11;;;;;;;4.10;2.40;;;16.80;97.30;;;;;;5010670;28;20415;-90
2022/09/05 07:11:50;;;;;;;4.83;2.67;;;16.90;97.30;;;;;;4999482;28;20474;-88
2022/09/05 07:14:27;;;;;;;6.07;3.30;;;16.90;97.30;;;;;;5012885;28;20953;-87
2022/09/05 07:17:10;;;;;;;5.67;2.60;;;17.00;97.30;;;;;;5012850;28;20450;-87
2022/09/05 07:19:50;;;;;;;5.90;3.33;;;17.00;97.30;;;;;;5001977;28;20431;-88
2022/09/05 07:22:56;;;;;;;3.63;2.60;;;17.10;97.30;;;;;;5012767;28;20473;-88
2022/09/05 07:25:27;;;;;;;6.43;4.57;;;17.20;97.30;;;;;;5011084;28;20423;-87
2022/09/05 07:28:14;;;;;;;4.07;2.57;;;17.20;97.30;;;;;;5012755;28;20942;-86
2022/09/05 07:30:45;;;;;;;7.57;4.97;;;17.30;97.30;;;;;;4996178;28;20984;-87
2022/09/05 07:33:16;;;;;;;7.70;3.13;;;17.40;97.30;;;;;;5012065;28;20430;-88
2022/09/05 07:35:42;;;;;;;3.10;2.60;;;17.40;97.30;;;;;;5012728;28;20422;-87
2022/09/05 07:38:22;;;;;;;4.60;3.30;;;17.50;97.30;;;;;;5007688;28;20456;-87
2022/09/05 07:40:52;;;;;;;4.87;3.17;;;17.60;97.30;;;;;;5005619;28;20996;-87
2022/09/05 07:43:23;;;;;;;10.30;5.27;;;17.70;97.30;;;;;;5009662;28;20503;-87
2022/09/05 07:46:10;;;;;;;5.40;4.00;;;17.80;97.30;;;;;;5001714;28;20527;-88
2022/09/05 07:48:42;;;;;;;5.30;3.80;;;17.80;97.30;;;;;;5000959;28;20432;-89
2022/09/05 07:51:16;;;;;;;5.60;3.50;;;18.00;97.30;;;;;;4992111;28;20499;-87
2022/09/05 07:53:43;;;;;;;8.30;5.20;;;18.10;97.30;;;;;;5010201;28;20424;-89
2022/09/05 07:56:09;;;;;;;6.13;3.93;;;18.20;97.30;;;;;;4989782;28;20444;-87
2022/09/05 07:58:44;;;;;;;7.43;3.80;;;18.30;97.30;;;;;;5018009;28;20424;-87
2022/09/05 08:01:12;;;;;;;6.37;3.80;;;18.40;97.30;;;;;;4984117;28;20444;-87
2022/09/05 08:03:39;;;;;;;4.33;3.60;;;18.50;97.30;;;;;;5001661;28;20881;-86
2022/09/05 08:06:12;;;;;;;6.67;4.87;;;18.60;97.30;;;;;;5009158;28;20494;-87
2022/09/05 08:08:53;;;;;;;5.73;3.40;;;18.70;97.30;;;;;;5012213;28;20563;-87
2022/09/05 08:11:22;;;;;;;9.23;4.60;;;18.80;97.30;;;;;;4991973;28;20894;-86
2022/09/05 08:13:55;;;;;;;8.70;4.20;;;19.00;97.30;;;;;;5010320;28;20424;-86
2022/09/05 08:16:22;;;;;;;3.97;2.70;;;19.10;97.30;;;;;;4992517;28;20633;-87
2022/09/05 08:19:23;;;;;;;6.27;3.43;;;19.30;97.30;;;;;;4992822;28;20416;-86
2022/09/05 08:21:51;;;;;;;4.20;3.13;;;19.40;97.30;;;;;;5009718;28;20443;-87
2022/09/05 08:24:40;;;;;;;6.67;3.57;;;19.50;97.30;;;;;;5010056;28;20502;-87
2022/09/05 08:27:11;;;;;;;5.70;4.60;;;19.70;97.30;;;;;;5008380;28;20958;-89
2022/09/05 08:29:38;;;;;;;6.53;4.37;;;19.80;97.30;;;;;;4992868;28;20428;-87
2022/09/05 08:32:14;;;;;;;3.37;3.17;;;19.80;97.30;;;;;;5008608;28;20882;-87
2022/09/05 08:35:20;;;;;;;7.20;3.83;;;19.90;97.30;;;;;;4992159;28;20424;-87
2022/09/05 08:37:49;;;;;;;5.87;3.97;;;19.90;97.30;;;;;;4969641;28;20471;-87
2022/09/05 08:40:29;;;;;;;3.90;2.80;;;20.00;97.30;;;;;;4992237;28;20424;-87
2022/09/05 08:43:01;;;;;;;5.63;3.77;;;20.10;97.30;;;;;;5009614;28;20423;-88
2022/09/05 08:45:36;;;;;;;4.10;2.90;;;20.20;97.30;;;;;;5013321;28;21000;-87
2022/09/05 08:48:19;;;;;;;6.70;5.30;;;20.40;97.30;;;;;;4995826;28;20431;-86
2022/09/05 08:50:51;;;;;;;5.27;3.60;;;20.40;97.30;;;;;;4995689;28;20462;-86
2022/09/05 08:53:55;;;;;;;5.93;3.90;;;20.50;97.30;;;;;;4999877;28;20458;-87
2022/09/05 08:56:24;;;;;;;4.70;3.20;;;20.60;97.30;;;;;;4997293;28;20443;-87
2022/09/05 08:59:06;;;;;;;5.40;2.60;;;20.80;97.30;;;;;;5013362;28;20424;-86
2022/09/05 09:01:37;;;;;;;6.50;3.83;;;20.90;97.30;;;;;;4987657;28;20507;-87
2022/09/05 09:04:37;;;;;;;7.73;4.73;;;21.00;97.30;;;;;;4992225;28;20413;-87
2022/09/05 09:07:09;;;;;;;5.20;3.80;;;21.10;97.30;;;;;;5000776;28;20824;-87
2022/09/05 09:09:48;;;;;;;8.67;3.70;;;21.30;97.30;;;;;;4984381;28;20578;-87
2022/09/05 09:12:33;;;;;;;5.57;3.23;;;21.40;97.30;;;;;;4996138;28;20529;-86
2022/09/05 09:15:23;;;;;;;4.30;2.47;;;21.50;97.30;;;;;;5011729;28;20420;-88
2022/09/05 09:17:50;;;;;;;7.47;3.67;;;21.60;97.30;;;;;;4996774;28;20602;-88
2022/09/05 09:20:35;;;;;;;3.83;3.63;;;21.70;97.30;;;;;;4982514;28;20412;-86
2022/09/05 09:23:08;;;;;;;7.43;4.10;;;21.70;97.30;;;;;;5011371;28;20511;-86
2022/09/05 09:25:40;;;;;;;5.13;3.30;;;21.80;97.30;;;;;;4994749;28;20823;-87
2022/09/05 09:28:47;;;;;;;8.70;5.63;;;21.90;97.30;;;;;;5004809;28;20519;-87
2022/09/05 09:31:30;;;;;;;7.53;3.03;;;22.00;97.30;;;;;;5008852;28;20467;-87
2022/09/05 09:34:25;;;;;;;6.20;3.50;;;22.10;97.20;;;;;;4994975;28;20424;-89
2022/09/05 09:37:09;;;;;;;6.33;3.87;;;22.20;96.00;;;;;;5006063;28;20450;-87
2022/09/05 09:39:58;;;;;;;8.80;5.03;;;22.30;96.40;;;;;;5015396;28;20462;-86
2022/09/05 09:42:33;;;;;;;3.80;2.20;;;22.40;96.40;;;;;;5011142;28;20416;-86
2022/09/05 09:45:17;;;;;;;4.27;3.20;;;22.50;96.30;;;;;;5024310;28;21021;-87
2022/09/05 09:47:52;;;;;;;5.10;2.60;;;22.60;96.40;;;;;;5011125;28;20816;-87
2022/09/05 09:50:40;;;;;;;6.80;3.37;;;22.80;96.00;;;;;;5013339;28;20477;-88
2022/09/05 09:53:23;;;;;;;5.67;3.50;;;22.80;95.20;;;;;;5028371;28;20507;-87
2022/09/05 09:56:25;;;;;;;2.97;2.77;;;22.90;94.80;;;;;;5024506;28;20433;-86
2022/09/05 09:59:33;;;;;;;5.27;3.30;;;23.00;95.50;;;;;;5032087;28;20445;-87
2022/09/05 10:02:33;;;;;;;6.67;3.00;;;23.10;95.10;;;;;;5012826;28;20473;-88
2022/09/05 10:05:47;;;;;;;12.13;3.90;;;23.20;95.00;;;;;;5021237;28;20419;-87
2022/09/05 10:08:47;;;;;;;5.80;4.10;;;23.40;95.30;;;;;;5023815;28;20449;-87
2022/09/05 10:11:37;;;;;;;5.30;3.63;;;23.50;93.90;;;;;;5010422;28;20477;-87
2022/09/05 10:14:40;;;;;;;5.80;3.57;;;23.60;92.90;;;;;;5015094;28;20447;-89
2022/09/05 10:17:38;;;;;;;4.40;2.57;;;23.60;93.10;;;;;;5034592;28;20430;-88
2022/09/05 10:20:18;;;;;;;4.67;2.93;;;23.70;93.60;;;;;;5050298;28;20414;-88
2022/09/05 10:23:34;;;;;;;4.80;3.37;;;23.90;92.90;;;;;;5019785;28;20925;-87
2022/09/05 10:26:37;;;;;;;4.27;2.60;;;24.00;93.10;;;;;;4979612;28;20421;-87
2022/09/05 10:29:12;;;;;;;6.80;3.00;;;24.10;92.80;;;;;;5018587;28;20918;-88
2022/09/05 10:31:55;;;;;;;5.60;3.23;;;24.20;92.20;;;;;;5013686;28;20454;-88
2022/09/05 10:34:23;;;;;;;3.63;3.43;;;24.20;91.90;;;;;;5014032;28;20431;-87
2022/09/05 10:37:01;;;;;;;4.13;2.87;;;24.30;91.70;;;;;;5030972;28;20454;-87
2022/09/05 10:39:37;;;;;;;3.13;1.67;;;24.40;91.50;;;;;;5031120;28;20426;-87
2022/09/05 10:42:27;;;;;;;4.30;2.93;;;24.40;91.30;;;;;;5013729;28;20496;-87
2022/09/05 10:44:55;;;;;;;2.57;2.00;;;24.50;90.60;;;;;;5013115;28;20419;-86
2022/09/05 10:47:23;;;;;;;2.30;2.17;;;24.50;90.80;;;;;;5021345;28;20439;-87
2022/09/05 10:49:56;;;;;;;4.70;3.47;;;24.50;91.20;;;;;;5014244;28;20424;-88
2022/09/05 10:52:36;;;;;;;2.83;2.63;;;24.60;91.60;;;;;;5012793;28;20462;-87
2022/09/05 10:55:20;;;;;;;3.40;2.80;;;24.70;91.20;;;;;;4993765;28;20451;-87
2022/09/05 10:58:02;;;;;;;4.13;2.40;;;24.80;91.40;;;;;;5013239;28;20443;-87
2022/09/05 11:00:39;;;;;;;4.57;3.10;;;25.00;91.30;;;;;;5009976;28;20435;-89
2022/09/05 11:03:12;;;;;;;4.17;2.60;;;25.10;89.90;;;;;;5016743;28;20414;-86
2022/09/05 11:05:44;;;;;;;4.70;2.73;;;25.10;89.70;;;;;;5012452;28;20441;-88
2022/09/05 11:08:32;;;;;;;4.50;3.37;;;25.20;89.80;;;;;;5013324;28;20447;-87
2022/09/05 11:11:18;;;;;;;4.03;3.27;;;25.20;89.80;;;;;;5028013;28;20463;-86
2022/09/05 11:13:45;;;;;;;2.90;2.00;;;25.20;89.30;;;;;;5012825;28;20803;-87
2022/09/05 11:16:35;;;;;;;6.03;3.50;;;25.30;89.30;;;;;;5011593;28;20531;-89
2022/09/05 11:19:27;;;;;;;2.57;2.30;;;25.30;89.50;;;;;;5009442;28;20452;-87
2022/09/05 11:22:03;;;;;;;2.47;2.10;;;25.30;89.00;;;;;;5012550;28;20413;-87
2022/09/05 11:24:54;;;;;;;2.80;2.60;;;25.40;89.20;;;;;;5013086;28;20807;-87
2022/09/05 11:27:34;;;;;;;5.03;2.57;;;25.40;89.10;;;;;;5011393;28;20512;-87
2022/09/05 11:30:07;;;;;;;2.40;2.10;;;25.50;89.00;;;;;;5028084;28;20428;-87
2022/09/05 11:32:50;;;;;;;3.10;2.90;;;25.50;89.30;;;;;;5007400;28;20977;-87
2022/09/05 11:35:21;;;;;;;8.03;2.37;;;25.70;88.30;;;;;;5000632;28;20491;-88
2022/09/05 11:38:22;;;;;;;2.53;2.13;;;25.70;88.00;;;;;;5053225;23;21226;-87
2022/09/05 11:41:26;;;;;;;2.40;2.13;;;25.90;87.70;;;;;;5026749;28;20424;-86
2022/09/05 11:44:16;;;;;;;2.03;1.93;;;26.00;87.50;;;;;;5027776;28;20406;-87
2022/09/05 11:47:03;;;;;;;3.77;3.30;;;26.00;87.50;;;;;;5030105;28;20458;-86
2022/09/05 11:49:50;;;;;;;2.87;2.60;;;26.10;89.00;;;;;;5029641;28;20799;-86
2022/09/05 11:52:20;;;;;;;2.63;1.83;;;26.30;87.00;;;;;;5028470;28;20447;-86
2022/09/05 11:55:28;;;;;;;3.07;2.40;;;26.40;85.80;;;;;;5025776;28;20419;-87
2022/09/05 11:58:19;;;;;;;2.67;2.30;;;26.50;87.10;;;;;;5030466;28;20423;-86
2022/09/05 12:00:56;;;;;;;10.30;2.07;;;26.70;86.70;;;;;;4997110;28;20427;-87
2022/09/05 12:03:44;;;;;;;4.60;1.97;;;26.90;86.10;;;;;;5042256;28;20435;-87
2022/09/05 12:06:29;;;;;;;3.20;3.00;;;27.00;85.00;;;;;;5038456;28;20427;-89
2022/09/05 12:09:18;;;;;;;2.87;2.37;;;27.00;84.70;;;;;;5019471;28;20426;-87
2022/09/05 12:12:02;;;;;;;3.50;2.33;;;27.10;86.10;;;;;;5025176;28;20454;-86
2022/09/05 12:14:55;;;;;;;3.30;2.47;;;27.20;85.50;;;;;;5029563;28;20427;-87
2022/09/05 12:17:50;;;;;;;4.93;2.23;;;27.40;85.90;;;;;;5017333;28;20423;-88
2022/09/05 12:20:36;;;;;;;3.07;1.87;;;27.60;84.20;;;;;;5033181;28;20422;-86
2022/09/05 12:23:26;;;;;;;2.50;2.30;;;27.70;83.60;;;;;;5014435;28;20469;-87
2022/09/05 12:26:16;;;;;;;3.40;2.50;;;27.70;83.60;;;;;;5017136;28;20498;-86
2022/09/05 12:28:43;;;;;;;2.13;1.90;;;27.80;83.60;;;;;;5017160;28;20442;-86
2022/09/05 12:31:14;;;;;;;2.23;2.03;;;27.80;82.20;;;;;;5016996;28;20553;-86
2022/09/05 12:33:45;;;;;;;2.80;2.07;;;27.70;82.50;;;;;;5013655;28;20424;-87
2022/09/05 12:36:16;;;;;;;5.73;3.30;;;27.70;82.20;;;;;;5016865;28;20445;-87
2022/09/05 12:39:18;;;;;;;10.83;2.67;;;27.70;82.20;;;;;;5013177;28;20506;-86
2022/09/05 12:41:52;;;;;;;4.10;3.33;;;27.70;82.20;;;;;;5018626;28;20953;-86
2022/09/05 12:44:57;;;;;;;2.50;1.50;;;27.80;83.80;;;;;;5015732;28;20430;-86
2022/09/05 12:47:28;;;;;;;2.47;1.83;;;28.00;82.50;;;;;;5012900;28;20512;-87
2022/09/05 12:50:09;;;;;;;1.90;1.77;;;28.10;82.20;;;;;;5017003;28;20423;-86
2022/09/05 12:52:48;;;;;;;2.93;2.73;;;28.20;82.40;;;;;;5013121;28;20470;-86
2022/09/05 12:55:18;;;;;;;15.23;2.03;;;28.40;82.00;;;;;;5013748;28;20423;-87
2022/09/05 12:57:44;;;;;;;2.97;1.80;;;28.60;81.00;;;;;;5016180;28;20431;-86
2022/09/05 13:00:22;;;;;;;3.30;2.27;;;28.80;81.00;;;;;;5014832;28;20451;-85
2022/09/05 13:03:00;;;;;;;2.90;2.30;;;28.80;79.90;;;;;;5022542;28;20423;-87
2022/09/05 13:05:44;;;;;;;5.57;3.17;;;28.80;80.50;;;;;;5017190;28;20517;-87
2022/09/05 13:08:20;;;;;;;2.27;2.07;;;28.70;79.90;;;;;;5036470;28;20419;-90
2022/09/05 13:10:50;;;;;;;1.83;1.73;;;28.70;80.40;;;;;;5040382;28;20450;-90
2022/09/05 13:13:32;;;;;;;1.70;1.60;;;28.70;79.20;;;;;;5040706;28;20420;-86
2022/09/05 13:16:00;;;;;;;5.33;2.10;;;28.80;80.30;;;;;;5010982;28;20411;-87
2022/09/05 13:18:36;;;;;;;2.17;2.00;;;28.90;80.40;;;;;;5015983;28;20435;-85
2022/09/05 13:21:07;;;;;;;4.60;2.10;;;29.00;79.30;;;;;;5024326;28;20452;-87
2022/09/05 13:23:44;;;;;;;10.93;2.77;;;29.00;79.60;;;;;;5016106;28;20843;-87
2022/09/05 13:26:32;;;;;;;2.80;2.60;;;29.00;78.40;;;;;;5014765;28;20439;-87
2022/09/05 13:29:02;;;;;;;1.97;1.60;;;29.00;79.30;;;;;;5016328;28;20443;-85
2022/09/05 13:31:40;;;;;;;2.90;2.70;;;28.90;78.50;;;;;;5015564;28;20479;-88
2022/09/05 13:34:23;;;;;;;2.50;1.70;;;28.60;78.40;;;;;;5007636;28;20415;-87
2022/09/05 13:37:02;;;;;;;3.17;3.00;;;28.50;79.60;;;;;;5023576;28;20424;-86
2022/09/05 13:39:52;;;;;;;2.93;2.30;;;28.60;79.50;;;;;;5004613;28;20464;-86
2022/09/05 13:42:24;;;;;;;3.43;1.90;;;28.70;79.50;;;;;;5000418;28;20420;-86
2022/09/05 13:44:59;;;;;;;2.10;1.80;;;28.80;79.10;;;;;;5014442;28;20840;-87
2022/09/05 13:47:54;;;;;;;3.93;2.43;;;28.90;78.60;;;;;;4988392;28;20424;-87
2022/09/05 13:50:22;;;;;;;2.00;1.80;;;29.00;77.90;;;;;;4991554;28;20938;-88
2022/09/05 13:53:08;;;;;;;2.00;1.90;;;29.00;78.80;;;;;;5008778;28;20426;-87
2022/09/05 13:55:36;;;;;;;1.53;1.43;;;29.10;78.70;;;;;;5009083;28;20423;-88
2022/09/05 13:58:43;;;;;;;2.40;1.63;;;29.30;79.00;;;;;;4992651;28;20496;-89
2022/09/05 14:01:32;;;;;;;4.60;2.53;;;29.50;76.80;;;;;;4995901;28;20973;-88
2022/09/05 14:04:40;;;;;;;1.97;1.57;;;29.60;77.40;;;;;;4995322;28;20458;-88
2022/09/05 14:07:30;;;;;;;2.60;1.73;;;29.60;77.40;;;;;;4992298;28;20420;-88
2022/09/05 14:10:12;;;;;;;2.77;2.00;;;29.50;77.30;;;;;;5002353;28;20501;-88
2022/09/05 14:12:39;;;;;;;7.63;3.17;;;29.30;76.90;;;;;;5011986;28;20836;-86